Time;durP1;ratioP1;P1;durP2;ratioP2;P2;SDS_P1;SDS_P2;PMS_P1;PMS_P2;Temp;Humidity;BMP_temperature;BMP_pressure;BME280_temperature;BME280_humidity;BME280_pressure;Samples;Min_cycle;Max_cycle;Signal;HPM_P1;HPM_P2
2021/01/09 00:02:15;;;;;;;65.88;33.95;;;0.50;99.90;;;;;;5093712;28;20020;-69
2021/01/09 00:04:42;;;;;;;66.68;34.00;;;0.40;99.90;;;;;;5095716;28;20032;-68
2021/01/09 00:07:09;;;;;;;66.03;33.58;;;0.40;99.90;;;;;;5090854;28;20082;-69
2021/01/09 00:09:35;;;;;;;56.50;29.83;;;0.50;99.90;;;;;;5094047;28;20023;-68
2021/01/09 00:12:01;;;;;;;59.70;30.17;;;0.50;99.90;;;;;;5094035;28;20059;-69
2021/01/09 00:14:27;;;;;;;63.67;33.30;;;0.40;99.90;;;;;;5093600;28;20078;-68
2021/01/09 00:16:53;;;;;;;58.30;30.80;;;0.30;99.90;;;;;;5090354;28;20027;-67
2021/01/09 00:19:18;;;;;;;58.15;31.15;;;0.40;99.90;;;;;;5099442;28;20028;-67
2021/01/09 00:21:45;;;;;;;64.40;31.35;;;0.40;99.90;;;;;;5101547;28;20096;-68
2021/01/09 00:24:11;;;;;;;63.40;31.50;;;0.40;99.90;;;;;;5102456;28;20440;-69
2021/01/09 00:26:38;;;;;;;56.47;30.77;;;0.30;99.90;;;;;;5103407;28;20038;-68
2021/01/09 00:29:04;;;;;;;54.72;31.33;;;0.30;99.90;;;;;;5105192;28;20400;-69
2021/01/09 00:31:30;;;;;;;59.70;30.55;;;0.30;99.90;;;;;;5106517;28;20031;-68
2021/01/09 00:33:56;;;;;;;58.65;30.17;;;0.30;99.90;;;;;;5109165;28;20085;-67
2021/01/09 00:36:21;;;;;;;59.63;30.83;;;0.30;99.90;;;;;;5109071;28;20482;-67
2021/01/09 00:38:47;;;;;;;58.05;29.73;;;0.30;99.90;;;;;;5108948;28;20428;-67
2021/01/09 00:41:12;;;;;;;60.08;31.52;;;0.30;99.90;;;;;;5108546;28;20016;-69
2021/01/09 00:43:38;;;;;;;65.45;32.05;;;0.20;99.90;;;;;;5102757;28;20107;-67
2021/01/09 00:46:03;;;;;;;60.75;32.42;;;0.20;99.90;;;;;;5107336;28;20118;-68
2021/01/09 00:48:29;;;;;;;60.53;31.92;;;0.20;99.90;;;;;;5115794;28;20039;-69
2021/01/09 00:50:54;;;;;;;60.42;32.10;;;0.20;99.90;;;;;;5118153;28;20019;-68
2021/01/09 00:53:20;;;;;;;65.63;32.53;;;0.10;99.90;;;;;;5103683;28;20046;-67
2021/01/09 00:55:46;;;;;;;58.08;31.13;;;0.10;99.90;;;;;;5120959;28;20023;-69
2021/01/09 00:58:11;;;;;;;66.15;32.13;;;0.20;99.90;;;;;;5107347;28;20042;-66
2021/01/09 01:00:37;;;;;;;61.42;30.63;;;0.10;99.90;;;;;;5117661;28;20035;-68
2021/01/09 01:03:03;;;;;;;53.40;28.77;;;0.20;99.90;;;;;;5116372;28;20016;-67
2021/01/09 01:05:30;;;;;;;57.42;28.60;;;0.20;99.90;;;;;;5117249;28;20432;-68
2021/01/09 01:07:56;;;;;;;55.17;28.98;;;0.20;99.90;;;;;;5104807;28;20343;-67
2021/01/09 01:10:21;;;;;;;60.45;31.38;;;0.20;99.90;;;;;;5112102;28;20437;-66
2021/01/09 01:12:47;;;;;;;57.53;29.17;;;0.10;99.90;;;;;;5119831;28;20080;-68
2021/01/09 01:15:14;;;;;;;54.28;27.75;;;0.10;99.90;;;;;;5118985;27;20424;-67
2021/01/09 01:17:46;;;;;;;59.85;29.73;;;0.00;99.90;;;;;;5113857;28;20050;-66
2021/01/09 01:20:12;;;;;;;53.58;27.17;;;0.00;99.90;;;;;;5110675;28;20039;-67
2021/01/09 01:22:38;;;;;;;54.33;28.45;;;0.00;99.90;;;;;;5123123;27;20027;-69
2021/01/09 01:25:05;;;;;;;61.47;28.98;;;0.00;99.90;;;;;;5119756;28;20020;-67
2021/01/09 01:27:31;;;;;;;47.92;25.98;;;-0.10;99.90;;;;;;5119968;27;20020;-68
2021/01/09 01:29:56;;;;;;;47.08;26.10;;;-0.10;99.90;;;;;;5122743;28;20029;-67
2021/01/09 01:32:22;;;;;;;48.85;25.45;;;-0.10;99.90;;;;;;5118664;28;20020;-68
2021/01/09 01:34:47;;;;;;;51.85;27.13;;;0.00;99.90;;;;;;5121794;28;20115;-67
2021/01/09 01:37:13;;;;;;;47.88;26.17;;;0.00;99.90;;;;;;5103161;28;20030;-68
2021/01/09 01:39:38;;;;;;;50.10;24.92;;;-0.10;99.90;;;;;;5120701;28;20130;-67
2021/01/09 01:42:06;;;;;;;45.03;24.60;;;-0.10;99.90;;;;;;5120020;27;20375;-68
2021/01/09 01:44:31;;;;;;;47.55;25.23;;;0.00;99.90;;;;;;5126361;27;20432;-70
2021/01/09 01:46:59;;;;;;;48.15;24.02;;;-0.10;99.90;;;;;;5122570;27;20020;-67
2021/01/09 01:49:24;;;;;;;45.38;23.27;;;-0.20;99.90;;;;;;5126707;27;20024;-69
2021/01/09 01:51:52;;;;;;;48.17;24.38;;;-0.20;99.90;;;;;;5126376;27;20069;-68
2021/01/09 01:54:19;;;;;;;49.78;24.45;;;-0.20;99.90;;;;;;5127777;27;20043;-68
2021/01/09 01:56:48;;;;;;;51.17;24.83;;;-0.20;99.90;;;;;;5128427;27;20021;-67
2021/01/09 01:59:13;;;;;;;51.15;23.08;;;-0.20;99.90;;;;;;5114266;27;20052;-67
2021/01/09 02:01:42;;;;;;;46.25;22.75;;;-0.10;99.90;;;;;;5127951;27;20503;-68
2021/01/09 02:04:07;;;;;;;40.40;22.80;;;0.00;99.90;;;;;;5123049;27;20427;-68
2021/01/09 02:06:35;;;;;;;45.83;22.95;;;-0.10;99.90;;;;;;5123137;27;20494;-68
2021/01/09 02:09:00;;;;;;;39.90;19.77;;;0.00;99.90;;;;;;5099242;28;20032;-67
2021/01/09 02:11:50;;;;;;;39.67;20.98;;;0.00;99.90;;;;;;5108756;28;20360;-68
2021/01/09 02:14:25;;;;;;;40.25;21.30;;;-0.20;99.90;;;;;;5113176;27;20127;-68
2021/01/09 02:16:51;;;;;;;45.25;22.05;;;-0.10;99.90;;;;;;5113744;28;20030;-67
2021/01/09 02:19:22;;;;;;;43.63;22.67;;;-0.10;99.90;;;;;;5113451;28;20020;-69
2021/01/09 02:21:51;;;;;;;42.80;20.52;;;-0.30;99.90;;;;;;5114950;27;20075;-69
2021/01/09 02:24:18;;;;;;;41.88;21.45;;;-0.30;99.90;;;;;;5114195;27;20032;-67
2021/01/09 02:26:50;;;;;;;42.40;20.20;;;-0.30;99.90;;;;;;5109208;28;20088;-72
2021/01/09 02:29:16;;;;;;;37.08;19.45;;;-0.30;99.90;;;;;;5111786;28;20793;-69
2021/01/09 02:32:00;;;;;;;39.80;20.55;;;-0.20;99.90;;;;;;5112689;28;20110;-66
2021/01/09 02:34:38;;;;;;;35.38;18.52;;;-0.20;99.90;;;;;;5147265;27;20031;-70
2021/01/09 02:37:04;;;;;;;38.47;19.50;;;-0.10;99.90;;;;;;5107284;27;20043;-68
2021/01/09 02:39:31;;;;;;;33.15;18.08;;;-0.10;99.90;;;;;;5124469;27;20081;-69
2021/01/09 02:41:58;;;;;;;41.03;19.33;;;-0.10;99.90;;;;;;5110706;28;20050;-67
2021/01/09 02:44:24;;;;;;;39.92;18.58;;;0.00;99.90;;;;;;5091662;28;20119;-69
2021/01/09 02:46:49;;;;;;;42.00;19.35;;;0.00;99.90;;;;;;5101051;28;20103;-69
2021/01/09 02:49:15;;;;;;;38.65;18.50;;;-0.10;99.90;;;;;;5112532;27;20023;-69
2021/01/09 02:51:40;;;;;;;41.63;18.10;;;-0.10;99.90;;;;;;5110700;28;20157;-68
2021/01/09 02:54:06;;;;;;;35.72;18.10;;;0.00;99.90;;;;;;5102967;28;20050;-68
2021/01/09 02:56:32;;;;;;;35.92;18.02;;;-0.10;99.90;;;;;;5111147;28;20477;-69
2021/01/09 02:58:57;;;;;;;38.20;17.45;;;0.00;99.90;;;;;;5109811;28;20046;-68
2021/01/09 03:01:28;;;;;;;36.47;18.27;;;-0.10;99.90;;;;;;5104403;28;20012;-67
2021/01/09 03:03:54;;;;;;;32.15;16.92;;;-0.10;99.90;;;;;;5096184;28;20055;-68
2021/01/09 03:06:20;;;;;;;34.42;17.85;;;0.00;99.90;;;;;;5092050;28;20071;-67
2021/01/09 03:08:46;;;;;;;35.03;18.08;;;0.00;99.90;;;;;;5070716;28;20050;-69
2021/01/09 03:11:12;;;;;;;34.78;17.38;;;0.00;99.90;;;;;;5087340;28;20374;-67
2021/01/09 03:13:37;;;;;;;35.13;18.08;;;0.00;99.90;;;;;;5090961;28;20046;-67
2021/01/09 03:16:03;;;;;;;32.85;19.00;;;0.10;99.90;;;;;;5076438;28;20042;-67
2021/01/09 03:18:29;;;;;;;37.60;18.27;;;0.10;99.90;;;;;;5090827;28;20024;-68
2021/01/09 03:20:56;;;;;;;35.20;17.70;;;0.00;99.90;;;;;;5090199;28;20024;-68
2021/01/09 03:23:21;;;;;;;34.05;17.73;;;-0.10;99.90;;;;;;5072056;28;20032;-67
2021/01/09 03:25:47;;;;;;;30.77;16.70;;;-0.10;99.90;;;;;;5106560;28;20133;-68
2021/01/09 03:28:12;;;;;;;30.45;16.52;;;0.00;99.90;;;;;;5092109;28;20542;-68
2021/01/09 03:30:39;;;;;;;30.95;16.42;;;0.10;99.90;;;;;;5102376;28;20142;-68
2021/01/09 03:33:04;;;;;;;33.17;16.75;;;0.00;99.90;;;;;;5103285;28;20024;-66
2021/01/09 03:35:30;;;;;;;30.38;16.73;;;-0.10;99.90;;;;;;5096033;28;20362;-68
2021/01/09 03:37:56;;;;;;;32.83;16.30;;;-0.20;99.90;;;;;;5104098;28;20530;-67
2021/01/09 03:40:21;;;;;;;30.17;15.45;;;-0.10;99.90;;;;;;5081493;28;20039;-69
2021/01/09 03:42:48;;;;;;;31.63;16.60;;;-0.10;99.90;;;;;;5086163;28;20027;-67
2021/01/09 03:45:14;;;;;;;29.30;15.80;;;-0.10;99.90;;;;;;5089362;28;20428;-67
2021/01/09 03:47:40;;;;;;;33.53;17.15;;;-0.10;99.90;;;;;;5089831;28;20051;-67
2021/01/09 03:50:06;;;;;;;32.95;15.93;;;-0.10;99.90;;;;;;5072257;28;20480;-67
2021/01/09 03:52:31;;;;;;;31.08;16.15;;;-0.20;99.90;;;;;;5095071;28;20491;-67
2021/01/09 03:54:57;;;;;;;36.60;17.55;;;-0.10;99.90;;;;;;5082349;28;20040;-67
2021/01/09 03:57:23;;;;;;;36.15;16.17;;;-0.20;99.90;;;;;;5089530;28;20019;-69
2021/01/09 03:59:49;;;;;;;35.50;17.20;;;-0.20;99.90;;;;;;5088539;28;20027;-69
2021/01/09 04:02:15;;;;;;;31.95;16.55;;;-0.20;99.90;;;;;;5088752;28;20024;-68
2021/01/09 04:04:40;;;;;;;28.73;15.63;;;-0.20;99.90;;;;;;5089495;28;20031;-69
2021/01/09 04:07:06;;;;;;;29.27;16.17;;;-0.10;99.90;;;;;;5091655;28;20498;-67
2021/01/09 04:09:31;;;;;;;31.67;16.45;;;-0.20;99.90;;;;;;5076361;28;20380;-67
2021/01/09 04:11:57;;;;;;;31.92;16.17;;;-0.20;99.90;;;;;;5087548;28;20032;-68
2021/01/09 04:14:23;;;;;;;31.77;15.90;;;-0.30;99.90;;;;;;5088097;28;20485;-69
2021/01/09 04:16:49;;;;;;;36.00;16.80;;;-0.30;99.90;;;;;;5089741;28;20469;-67
2021/01/09 04:19:15;;;;;;;29.98;15.35;;;-0.30;99.90;;;;;;5088347;28;20099;-67
2021/01/09 04:21:51;;;;;;;29.17;14.93;;;-0.40;99.90;;;;;;5104687;28;20157;-67
2021/01/09 04:24:18;;;;;;;35.10;15.18;;;-0.40;99.90;;;;;;5100752;28;20035;-67
2021/01/09 04:26:43;;;;;;;29.85;14.63;;;-0.30;99.90;;;;;;5087933;28;20026;-69
2021/01/09 04:29:09;;;;;;;26.88;15.35;;;-0.40;99.90;;;;;;5084525;28;20076;-68
2021/01/09 04:31:34;;;;;;;33.10;16.48;;;-0.40;99.90;;;;;;5089149;28;20020;-68
2021/01/09 04:34:00;;;;;;;32.33;16.23;;;-0.40;99.90;;;;;;5070290;28;20134;-69
2021/01/09 04:36:26;;;;;;;28.75;14.63;;;-0.40;99.90;;;;;;5085326;28;20028;-67
2021/01/09 04:38:56;;;;;;;33.67;16.38;;;-0.40;99.90;;;;;;5090905;28;20031;-65
2021/01/09 04:41:23;;;;;;;32.67;15.00;;;-0.40;99.90;;;;;;5093305;28;20488;-68
2021/01/09 04:43:49;;;;;;;30.38;14.82;;;-0.50;99.90;;;;;;5069990;28;20086;-68
2021/01/09 04:46:16;;;;;;;31.80;13.75;;;-0.50;99.90;;;;;;5089330;28;20028;-68
2021/01/09 04:48:43;;;;;;;34.42;15.90;;;-0.50;99.90;;;;;;5089653;28;20031;-68
2021/01/09 04:51:09;;;;;;;31.42;15.85;;;-0.40;99.90;;;;;;5089229;28;20016;-67
2021/01/09 04:53:38;;;;;;;30.73;14.85;;;-0.40;99.90;;;;;;5099923;28;20077;-69
2021/01/09 04:56:05;;;;;;;29.58;14.98;;;-0.40;99.90;;;;;;5087106;28;20025;-69
2021/01/09 04:58:32;;;;;;;27.10;13.48;;;-0.50;99.90;;;;;;5088281;28;20066;-68
2021/01/09 05:00:58;;;;;;;29.77;14.27;;;-0.50;99.90;;;;;;5084465;28;20051;-68
2021/01/09 05:03:24;;;;;;;32.05;14.95;;;-0.50;99.90;;;;;;5086695;28;20414;-67
2021/01/09 05:05:49;;;;;;;30.58;14.40;;;-0.40;99.90;;;;;;5092450;28;20054;-67
2021/01/09 05:08:15;;;;;;;28.98;14.43;;;-0.50;99.90;;;;;;5106133;28;20479;-67
2021/01/09 05:10:41;;;;;;;33.35;16.17;;;-0.60;99.90;;;;;;5109300;28;20016;-68
2021/01/09 05:13:07;;;;;;;30.10;15.13;;;-0.60;99.90;;;;;;5108044;28;20026;-69
2021/01/09 05:15:37;;;;;;;27.45;14.50;;;-0.60;99.90;;;;;;5109117;28;20019;-68
2021/01/09 05:18:04;;;;;;;30.00;14.88;;;-0.70;99.90;;;;;;5107796;27;20031;-68
2021/01/09 05:20:30;;;;;;;34.67;15.25;;;-0.70;99.90;;;;;;5109898;28;20023;-68
2021/01/09 05:22:57;;;;;;;29.27;15.05;;;-0.70;99.90;;;;;;5104590;28;20552;-68
2021/01/09 05:25:24;;;;;;;30.20;14.25;;;-0.70;99.90;;;;;;5114594;27;20128;-68
2021/01/09 05:27:54;;;;;;;31.90;14.40;;;-0.80;99.90;;;;;;5111140;27;20032;-67
2021/01/09 05:30:20;;;;;;;26.45;14.35;;;-0.80;99.90;;;;;;5110076;27;20081;-67
2021/01/09 05:32:46;;;;;;;29.95;14.90;;;-0.90;99.90;;;;;;5120973;27;20023;-68
2021/01/09 05:35:15;;;;;;;29.48;13.90;;;-0.80;99.90;;;;;;5112946;27;20031;-68
2021/01/09 05:37:41;;;;;;;29.85;13.70;;;-0.70;99.90;;;;;;5107085;28;20136;-68
2021/01/09 05:40:09;;;;;;;35.65;16.30;;;-0.70;99.90;;;;;;5112679;27;20514;-69
2021/01/09 05:42:35;;;;;;;28.10;13.93;;;-0.70;99.90;;;;;;5115448;27;20034;-68
2021/01/09 05:45:04;;;;;;;33.85;15.05;;;-0.60;99.90;;;;;;5116852;27;20027;-67
2021/01/09 05:47:30;;;;;;;26.45;13.80;;;-0.60;99.90;;;;;;5128774;27;20073;-66
2021/01/09 05:49:57;;;;;;;32.50;14.90;;;-0.70;99.90;;;;;;5122999;27;20088;-68
2021/01/09 05:52:24;;;;;;;29.45;14.57;;;-0.70;99.90;;;;;;5097682;27;20504;-67
2021/01/09 05:55:00;;;;;;;30.40;14.13;;;-0.70;99.90;;;;;;5112563;28;20043;-66
2021/01/09 05:57:30;;;;;;;27.95;14.32;;;-0.70;99.90;;;;;;5110246;28;20535;-68
2021/01/09 05:59:57;;;;;;;32.60;14.10;;;-0.70;99.90;;;;;;5103734;28;20373;-67
2021/01/09 06:02:24;;;;;;;31.45;13.77;;;-0.70;99.90;;;;;;5105525;28;20047;-68
2021/01/09 06:05:03;;;;;;;31.98;14.55;;;-0.70;99.90;;;;;;5104456;28;20052;-67
2021/01/09 06:07:36;;;;;;;26.55;13.13;;;-0.70;99.90;;;;;;5111937;28;20461;-67
2021/01/09 06:10:15;;;;;;;29.35;14.73;;;-0.70;99.90;;;;;;5101170;28;20039;-67
2021/01/09 06:12:59;;;;;;;26.92;14.60;;;-0.80;99.90;;;;;;5111530;28;20235;-70
2021/01/09 06:15:30;;;;;;;27.85;13.88;;;-0.80;99.90;;;;;;5101107;28;20043;-68
2021/01/09 06:17:57;;;;;;;29.10;14.13;;;-0.80;99.90;;;;;;5116475;27;20023;-67
2021/01/09 06:20:23;;;;;;;29.95;13.35;;;-0.90;99.90;;;;;;5109495;27;20069;-67
2021/01/09 06:22:50;;;;;;;26.20;13.68;;;-0.90;99.90;;;;;;5102159;28;20517;-68
2021/01/09 06:25:17;;;;;;;27.30;13.48;;;-1.00;99.90;;;;;;5110353;27;20597;-68
2021/01/09 06:27:49;;;;;;;33.05;14.45;;;-1.00;99.90;;;;;;5112045;28;20038;-69
2021/01/09 06:30:20;;;;;;;29.23;14.10;;;-1.00;99.90;;;;;;5115282;27;20072;-67
2021/01/09 06:32:58;;;;;;;30.63;13.70;;;-0.90;99.90;;;;;;5111918;27;20012;-69
2021/01/09 06:35:24;;;;;;;28.42;12.90;;;-0.90;99.90;;;;;;5112168;27;20042;-68
2021/01/09 06:37:50;;;;;;;27.77;14.95;;;-0.80;99.90;;;;;;5112247;27;20039;-66
2021/01/09 06:40:16;;;;;;;30.02;13.68;;;-0.80;99.90;;;;;;5114016;27;20024;-68
2021/01/09 06:42:43;;;;;;;31.50;14.18;;;-0.90;99.90;;;;;;5108907;27;20495;-67
2021/01/09 06:45:09;;;;;;;27.33;13.30;;;-0.80;99.90;;;;;;5106051;28;20506;-68
2021/01/09 06:47:35;;;;;;;28.58;14.23;;;-0.80;99.90;;;;;;5110656;27;20036;-68
2021/01/09 06:50:18;;;;;;;29.92;14.18;;;-0.90;99.90;;;;;;5109208;28;20024;-67
2021/01/09 06:52:56;;;;;;;31.25;13.68;;;-1.00;99.90;;;;;;5108769;28;20384;-68
2021/01/09 06:55:37;;;;;;;25.33;13.07;;;-0.90;99.90;;;;;;5103587;28;20093;-68
2021/01/09 06:58:31;;;;;;;24.65;13.63;;;-0.80;99.90;;;;;;5105809;28;20066;-69
2021/01/09 07:01:19;;;;;;;28.25;13.98;;;-0.80;99.90;;;;;;5107163;27;20118;-66
2021/01/09 07:03:46;;;;;;;26.65;13.77;;;-0.90;99.90;;;;;;5111087;28;20028;-67
2021/01/09 07:06:11;;;;;;;32.30;13.82;;;-0.90;99.90;;;;;;5110258;28;20050;-67
2021/01/09 07:08:40;;;;;;;43.22;14.70;;;-0.90;99.90;;;;;;5110473;27;20114;-67
2021/01/09 07:11:11;;;;;;;27.83;13.82;;;-0.80;99.90;;;;;;5110771;27;20030;-69
2021/01/09 07:13:37;;;;;;;31.02;14.23;;;-0.80;99.90;;;;;;5105787;27;20035;-69
2021/01/09 07:16:14;;;;;;;34.67;14.35;;;-0.90;99.90;;;;;;5120950;27;20028;-69
2021/01/09 07:18:49;;;;;;;26.33;12.43;;;-0.90;99.90;;;;;;5123588;27;20197;-69
2021/01/09 07:21:20;;;;;;;25.33;13.05;;;-0.90;99.90;;;;;;5120551;27;20042;-69
2021/01/09 07:23:51;;;;;;;29.95;13.10;;;-0.90;99.90;;;;;;5120717;27;20016;-68
2021/01/09 07:26:18;;;;;;;29.23;13.05;;;-0.90;99.90;;;;;;5124435;27;20027;-68
2021/01/09 07:28:46;;;;;;;29.23;12.88;;;-0.80;99.90;;;;;;5116690;27;20035;-68
2021/01/09 07:31:13;;;;;;;25.90;12.48;;;-0.80;99.90;;;;;;5127664;27;20079;-68
2021/01/09 07:33:42;;;;;;;24.95;11.98;;;-0.80;99.90;;;;;;5110555;27;20051;-68
2021/01/09 07:36:12;;;;;;;25.00;12.63;;;-0.80;99.90;;;;;;5113438;27;20023;-68
2021/01/09 07:38:45;;;;;;;26.77;12.95;;;-0.70;99.90;;;;;;5114653;27;20029;-69
2021/01/09 07:41:36;;;;;;;27.30;12.10;;;-0.70;99.90;;;;;;5120970;27;20016;-68
2021/01/09 07:44:15;;;;;;;20.15;10.90;;;-0.80;99.90;;;;;;5118195;27;20035;-67
2021/01/09 07:46:51;;;;;;;22.88;11.73;;;-0.80;99.90;;;;;;5111815;27;20024;-67
2021/01/09 07:49:26;;;;;;;23.98;11.38;;;-0.70;99.90;;;;;;5118985;27;20529;-67
2021/01/09 07:51:54;;;;;;;29.90;13.40;;;-0.80;99.90;;;;;;5111739;27;20467;-68
2021/01/09 07:54:39;;;;;;;26.92;13.27;;;-0.70;99.90;;;;;;5116377;27;20110;-70
2021/01/09 07:57:17;;;;;;;20.77;11.50;;;-0.70;99.90;;;;;;5117399;27;20016;-68
2021/01/09 07:59:55;;;;;;;27.13;12.25;;;-0.80;99.90;;;;;;5099558;27;20107;-68
2021/01/09 08:02:31;;;;;;;25.08;12.10;;;-0.80;99.90;;;;;;5087902;27;20019;-66
2021/01/09 08:05:19;;;;;;;25.88;12.65;;;-0.80;99.90;;;;;;5105815;28;20047;-69
2021/01/09 08:07:55;;;;;;;27.40;12.63;;;-0.80;99.90;;;;;;5112321;27;20020;-67
2021/01/09 08:10:31;;;;;;;32.20;12.20;;;-0.80;99.90;;;;;;5113006;27;20026;-67
2021/01/09 08:13:06;;;;;;;22.95;12.43;;;-0.70;99.90;;;;;;5109380;27;20032;-67
2021/01/09 08:15:33;;;;;;;23.80;12.05;;;-0.60;99.90;;;;;;5115703;27;20123;-67
2021/01/09 08:18:01;;;;;;;27.55;14.43;;;-0.60;99.90;;;;;;5109268;28;20062;-67
2021/01/09 08:20:27;;;;;;;30.77;13.10;;;-0.70;99.90;;;;;;5108973;28;20039;-67
2021/01/09 08:23:00;;;;;;;30.52;14.32;;;-0.60;99.90;;;;;;5106625;28;20472;-68
2021/01/09 08:25:27;;;;;;;24.42;13.10;;;-0.60;99.90;;;;;;5108716;28;20099;-67
2021/01/09 08:27:57;;;;;;;34.35;15.57;;;-0.50;99.90;;;;;;5109317;28;20124;-67
2021/01/09 08:30:27;;;;;;;33.20;16.15;;;-0.50;99.90;;;;;;5108177;28;20040;-68
2021/01/09 08:33:09;;;;;;;32.80;16.10;;;-0.50;99.90;;;;;;5107307;28;20069;-68
2021/01/09 08:35:37;;;;;;;28.98;14.40;;;-0.50;99.90;;;;;;5109692;28;20026;-69
2021/01/09 08:38:06;;;;;;;33.78;15.15;;;-0.50;99.90;;;;;;5106993;28;20032;-68
2021/01/09 08:40:32;;;;;;;38.15;16.95;;;-0.40;99.90;;;;;;5115930;27;20058;-69
2021/01/09 08:42:58;;;;;;;30.90;14.80;;;-0.40;99.90;;;;;;5120682;27;20490;-69
2021/01/09 08:45:46;;;;;;;38.95;15.75;;;-0.30;99.90;;;;;;5122427;27;20114;-70
2021/01/09 08:48:15;;;;;;;37.30;17.17;;;-0.30;99.90;;;;;;5125664;27;20065;-70
2021/01/09 08:50:52;;;;;;;42.83;17.75;;;-0.20;99.90;;;;;;5125619;28;20384;-69
2021/01/09 08:53:18;;;;;;;41.33;17.88;;;-0.20;99.90;;;;;;5126384;27;20114;-68
2021/01/09 08:55:44;;;;;;;38.00;18.27;;;-0.20;99.90;;;;;;5116538;27;20020;-68
2021/01/09 08:58:13;;;;;;;39.25;19.73;;;-0.10;99.90;;;;;;5109892;27;20057;-68
2021/01/09 09:00:39;;;;;;;43.10;19.95;;;0.00;99.90;;;;;;5125406;27;20030;-68
2021/01/09 09:03:08;;;;;;;37.95;19.02;;;0.10;99.90;;;;;;5123321;27;20031;-69
2021/01/09 09:05:40;;;;;;;35.42;17.58;;;0.10;99.90;;;;;;5125466;27;20146;-68
2021/01/09 09:08:09;;;;;;;36.05;18.08;;;0.30;99.90;;;;;;5116265;27;20035;-69
2021/01/09 09:10:35;;;;;;;39.15;18.10;;;0.30;99.90;;;;;;5123634;27;20506;-68
2021/01/09 09:13:24;;;;;;;33.08;17.42;;;0.30;99.90;;;;;;5124054;27;20118;-67
2021/01/09 09:15:51;;;;;;;35.25;17.67;;;0.40;99.90;;;;;;5125438;27;20031;-69
2021/01/09 09:18:17;;;;;;;36.65;18.33;;;0.40;99.90;;;;;;5123301;27;20012;-67
2021/01/09 09:20:48;;;;;;;34.92;17.08;;;0.50;99.90;;;;;;5122816;27;20039;-67
2021/01/09 09:23:22;;;;;;;33.78;17.25;;;0.50;99.90;;;;;;5115212;27;20032;-69
2021/01/09 09:26:11;;;;;;;41.53;19.17;;;0.60;99.90;;;;;;5115544;27;20404;-69
2021/01/09 09:28:45;;;;;;;39.53;18.55;;;0.60;99.90;;;;;;5120640;27;20110;-67
2021/01/09 09:31:22;;;;;;;45.70;19.83;;;0.70;99.90;;;;;;5120441;27;20020;-69
2021/01/09 09:34:04;;;;;;;35.17;17.48;;;0.70;99.90;;;;;;5132326;27;20396;-71
2021/01/09 09:36:32;;;;;;;37.20;18.50;;;0.80;99.90;;;;;;5128433;27;20444;-68
2021/01/09 09:38:58;;;;;;;34.30;17.20;;;0.90;99.90;;;;;;5116839;27;20423;-70
2021/01/09 09:41:25;;;;;;;38.85;19.25;;;0.90;99.90;;;;;;5120966;27;20513;-69
2021/01/09 09:44:00;;;;;;;40.65;18.65;;;1.00;99.90;;;;;;5118882;27;20468;-69
2021/01/09 09:46:26;;;;;;;32.35;16.15;;;1.10;99.90;;;;;;5110656;27;20081;-70
2021/01/09 09:48:52;;;;;;;33.83;15.98;;;1.00;99.90;;;;;;5105506;27;20031;-68
2021/01/09 09:51:18;;;;;;;28.85;16.00;;;1.10;99.90;;;;;;5114982;27;20032;-66
2021/01/09 09:53:53;;;;;;;27.95;13.95;;;1.10;99.90;;;;;;5115941;27;20069;-71
2021/01/09 09:56:23;;;;;;;33.33;15.60;;;1.20;99.90;;;;;;5115279;27;20019;-68
2021/01/09 09:59:06;;;;;;;606.83;65.60;;;1.30;99.90;;;;;;5115689;27;20019;-69
2021/01/09 10:01:32;;;;;;;23.17;11.52;;;1.40;99.90;;;;;;5100770;27;20140;-68
2021/01/09 10:04:00;;;;;;;15.00;7.10;;;1.60;99.90;;;;;;5115380;27;20476;-69
2021/01/09 10:06:38;;;;;;;11.73;6.40;;;2.00;99.90;;;;;;5124549;27;20043;-68
2021/01/09 10:09:20;;;;;;;11.75;5.25;;;2.40;99.90;;;;;;5127992;27;20039;-68
2021/01/09 10:11:48;;;;;;;10.18;5.13;;;2.70;99.90;;;;;;5106690;27;20027;-69
2021/01/09 10:14:13;;;;;;;11.70;4.90;;;3.00;99.90;;;;;;5099898;28;20521;-69
2021/01/09 10:16:39;;;;;;;13.20;5.18;;;3.20;99.90;;;;;;5121150;27;20049;-69
2021/01/09 10:19:06;;;;;;;18.10;4.70;;;3.40;99.90;;;;;;5119261;27;20054;-69
2021/01/09 10:21:32;;;;;;;15.68;4.03;;;3.50;99.90;;;;;;5096521;28;20028;-67
2021/01/09 10:23:59;;;;;;;7.60;3.72;;;3.50;99.90;;;;;;5110432;28;20026;-69
2021/01/09 10:26:29;;;;;;;15.50;4.53;;;3.60;99.90;;;;;;5111894;28;20019;-68
2021/01/09 10:28:55;;;;;;;11.15;4.07;;;3.80;99.90;;;;;;5121369;27;20023;-69
2021/01/09 10:31:35;;;;;;;10.10;4.00;;;3.90;99.90;;;;;;5130554;27;20031;-68
2021/01/09 10:34:02;;;;;;;9.82;4.47;;;3.90;99.90;;;;;;5114649;27;20437;-69
2021/01/09 10:36:32;;;;;;;10.27;4.30;;;4.00;99.90;;;;;;5109177;28;20039;-67
2021/01/09 10:38:58;;;;;;;11.25;4.50;;;4.00;99.90;;;;;;5113032;27;20420;-68
2021/01/09 10:41:24;;;;;;;10.00;4.47;;;4.10;99.90;;;;;;5098913;28;20085;-69
2021/01/09 10:43:49;;;;;;;15.57;4.55;;;4.20;99.90;;;;;;5112023;28;20031;-70
2021/01/09 10:46:30;;;;;;;16.35;5.70;;;4.30;99.90;;;;;;5111278;28;20027;-69
2021/01/09 10:49:00;;;;;;;8.73;3.95;;;4.30;99.90;;;;;;5112016;28;20020;-70
2021/01/09 10:51:26;;;;;;;13.60;4.25;;;4.40;99.90;;;;;;5109265;28;20051;-68
2021/01/09 10:53:52;;;;;;;6.15;3.83;;;4.50;99.90;;;;;;5096139;28;20039;-71
2021/01/09 10:56:18;;;;;;;17.25;4.60;;;4.50;99.90;;;;;;5110505;28;20476;-66
2021/01/09 10:58:44;;;;;;;7.57;3.30;;;4.50;99.90;;;;;;5123547;27;20140;-69
2021/01/09 11:01:09;;;;;;;9.95;3.15;;;4.50;99.90;;;;;;5125716;27;20349;-69
2021/01/09 11:03:40;;;;;;;6.63;2.40;;;4.50;99.90;;;;;;5104116;28;20020;-69
2021/01/09 11:06:05;;;;;;;9.23;3.10;;;4.60;99.90;;;;;;5099070;28;20067;-68
2021/01/09 11:08:31;;;;;;;6.50;2.47;;;4.70;99.90;;;;;;5123480;27;20008;-68
2021/01/09 11:10:56;;;;;;;3.63;2.38;;;4.70;99.90;;;;;;5121885;27;20034;-67
2021/01/09 11:13:22;;;;;;;11.48;2.58;;;4.80;99.90;;;;;;5116040;27;20043;-67
2021/01/09 11:15:49;;;;;;;10.63;2.35;;;4.80;99.90;;;;;;5109549;27;20074;-68
2021/01/09 11:18:15;;;;;;;7.32;2.72;;;4.80;99.90;;;;;;5109693;28;20019;-68
2021/01/09 11:20:51;;;;;;;8.93;2.42;;;4.90;99.90;;;;;;5108329;27;20016;-66
2021/01/09 11:23:20;;;;;;;8.68;2.08;;;4.90;99.90;;;;;;5113585;27;20020;-68
2021/01/09 11:25:48;;;;;;;11.63;2.67;;;5.00;99.90;;;;;;5110837;28;20116;-69
2021/01/09 11:28:15;;;;;;;9.63;2.45;;;5.00;99.90;;;;;;5110377;28;20114;-69
2021/01/09 11:30:43;;;;;;;3.70;1.98;;;5.10;99.90;;;;;;5108979;28;20111;-70
2021/01/09 11:33:08;;;;;;;10.15;2.67;;;5.20;99.90;;;;;;5110371;28;20060;-68
2021/01/09 11:35:34;;;;;;;9.77;2.30;;;5.20;99.90;;;;;;5109518;28;20065;-67
2021/01/09 11:38:00;;;;;;;7.53;2.58;;;5.50;99.90;;;;;;5110110;28;20031;-69
2021/01/09 11:40:27;;;;;;;8.63;2.40;;;5.80;99.90;;;;;;5110871;28;20035;-69
2021/01/09 11:42:52;;;;;;;10.10;1.95;;;6.20;99.90;;;;;;5112531;28;20061;-67
2021/01/09 11:45:20;;;;;;;8.30;2.03;;;6.40;99.90;;;;;;5103829;28;20024;-69
2021/01/09 11:47:45;;;;;;;6.05;2.20;;;6.40;99.90;;;;;;5107272;28;20484;-68
2021/01/09 11:50:14;;;;;;;4.80;1.63;;;6.40;99.90;;;;;;5102618;28;20462;-69
2021/01/09 11:52:40;;;;;;;4.60;2.10;;;6.60;99.90;;;;;;5111323;28;20096;-69
2021/01/09 11:55:06;;;;;;;5.85;2.55;;;6.50;99.90;;;;;;5109684;28;20459;-68
2021/01/09 11:57:32;;;;;;;6.88;2.22;;;6.30;99.90;;;;;;5108266;28;20055;-68
2021/01/09 11:59:58;;;;;;;9.32;3.30;;;6.50;99.90;;;;;;5105271;28;20104;-68
2021/01/09 12:02:23;;;;;;;7.13;2.08;;;6.50;99.90;;;;;;5110333;28;20032;-69
2021/01/09 12:04:49;;;;;;;6.95;2.53;;;6.60;99.90;;;;;;5108455;28;20036;-68
2021/01/09 12:07:15;;;;;;;12.15;2.42;;;6.60;99.90;;;;;;5109637;28;20038;-67
2021/01/09 12:09:41;;;;;;;6.38;2.20;;;6.60;99.90;;;;;;5109477;28;20027;-68
2021/01/09 12:12:06;;;;;;;5.95;1.73;;;7.00;99.90;;;;;;5108962;28;20039;-68
2021/01/09 12:14:32;;;;;;;13.13;2.22;;;7.00;99.90;;;;;;5110052;28;20097;-70
2021/01/09 12:17:02;;;;;;;6.57;1.65;;;7.20;99.90;;;;;;5115872;28;20058;-69
2021/01/09 12:19:28;;;;;;;12.57;1.63;;;7.10;99.90;;;;;;5105435;28;20031;-69
2021/01/09 12:21:55;;;;;;;6.30;1.98;;;6.90;99.90;;;;;;5111188;28;20043;-69
2021/01/09 12:24:21;;;;;;;4.75;1.83;;;6.80;99.90;;;;;;5104537;27;20101;-69
2021/01/09 12:26:55;;;;;;;4.03;1.77;;;6.80;99.90;;;;;;5127327;27;20418;-70
2021/01/09 12:29:22;;;;;;;6.55;1.63;;;7.00;99.90;;;;;;5130784;27;20027;-69
2021/01/09 12:31:49;;;;;;;6.35;1.58;;;6.80;99.90;;;;;;5099710;27;20085;-68
2021/01/09 12:34:16;;;;;;;11.13;2.15;;;6.80;99.90;;;;;;5118196;27;20059;-69
2021/01/09 12:36:42;;;;;;;11.35;2.25;;;6.80;99.90;;;;;;5109189;27;20058;-69
2021/01/09 12:39:08;;;;;;;5.88;1.42;;;6.90;99.90;;;;;;5109018;28;20376;-69
2021/01/09 12:41:35;;;;;;;9.93;1.75;;;6.80;99.90;;;;;;5108787;28;20030;-69
2021/01/09 12:44:02;;;;;;;5.10;1.42;;;6.90;99.90;;;;;;5114845;27;20016;-70